Hogestown, Pennsylvania
Current Conditions -  °F | °C
As of 5:56 AM on Friday 24 Oct 2014 (Local Time) from KCXY Reporting Station
Overcast Overcast  
Wind Chill: 57°   Ceiling: 3700
Heat Index: 57°   Visibility: 10mi
Dew Point: 43°   Wind: 13mph
Humidity: 59%   Direction: 300°WNW
Pressure: 29.93"   Gusts: NA
Location:  40.2485°N, 77.0142°W
Report Text: KCXY 240956Z AUTO 30011KT 10SM OVC037 14/06 A2993 RMK AO2 SLP136 T01390061
Loading
Personal Weather Stations






























Interactive Weather Map
Tropical Storm Tracking
New forecast layout! Learn more

10-Day Weather Forecast

Advertisements
Track Severe Weather on mobile